sensor_id;sensor_type;location;lat;lon;timestamp;P1;durP1;ratioP1;P2;durP2;ratioP2
10088;SDS011;51898;49.864;8.550;2024-01-27T00:02:11;6.40;;;2.53;;
10088;SDS011;51898;49.864;8.550;2024-01-27T00:05:13;8.60;;;4.07;;
10088;SDS011;51898;49.864;8.550;2024-01-27T00:08:15;6.13;;;2.97;;
10088;SDS011;51898;49.864;8.550;2024-01-27T00:11:17;6.27;;;2.37;;
10088;SDS011;51898;49.864;8.550;2024-01-27T00:14:19;7.63;;;2.77;;
10088;SDS011;51898;49.864;8.550;2024-01-27T00:17:20;5.80;;;2.60;;
10088;SDS011;51898;49.864;8.550;2024-01-27T00:20:25;3.07;;;1.80;;
10088;SDS011;51898;49.864;8.550;2024-01-27T00:23:27;5.17;;;2.73;;
10088;SDS011;51898;49.864;8.550;2024-01-27T00:26:29;6.00;;;2.57;;
10088;SDS011;51898;49.864;8.550;2024-01-27T00:29:30;7.63;;;2.80;;
10088;SDS011;51898;49.864;8.550;2024-01-27T00:32:32;6.00;;;2.50;;
10088;SDS011;51898;49.864;8.550;2024-01-27T00:35:35;10.57;;;2.83;;
10088;SDS011;51898;49.864;8.550;2024-01-27T00:38:37;6.43;;;3.13;;
10088;SDS011;51898;49.864;8.550;2024-01-27T00:41:40;9.27;;;2.73;;
10088;SDS011;51898;49.864;8.550;2024-01-27T00:44:41;6.23;;;3.60;;
10088;SDS011;51898;49.864;8.550;2024-01-27T00:47:43;6.93;;;2.77;;
10088;SDS011;51898;49.864;8.550;2024-01-27T00:50:45;5.40;;;2.60;;
10088;SDS011;51898;49.864;8.550;2024-01-27T00:53:47;5.03;;;2.60;;
10088;SDS011;51898;49.864;8.550;2024-01-27T00:56:49;9.60;;;2.80;;
10088;SDS011;51898;49.864;8.550;2024-01-27T00:59:50;7.27;;;3.27;;
10088;SDS011;51898;49.864;8.550;2024-01-27T01:02:52;6.87;;;3.47;;
10088;SDS011;51898;49.864;8.550;2024-01-27T01:05:54;7.37;;;3.23;;
10088;SDS011;51898;49.864;8.550;2024-01-27T01:08:56;6.00;;;3.23;;
10088;SDS011;51898;49.864;8.550;2024-01-27T01:11:57;5.33;;;2.80;;
10088;SDS011;51898;49.864;8.550;2024-01-27T01:14:59;11.37;;;3.30;;
10088;SDS011;51898;49.864;8.550;2024-01-27T01:18:01;7.30;;;3.73;;
10088;SDS011;51898;49.864;8.550;2024-01-27T01:21:03;10.97;;;3.00;;
10088;SDS011;51898;49.864;8.550;2024-01-27T01:24:05;12.90;;;2.77;;
10088;SDS011;51898;49.864;8.550;2024-01-27T01:27:06;11.60;;;3.20;;
10088;SDS011;51898;49.864;8.550;2024-01-27T01:30:08;6.70;;;3.40;;
10088;SDS011;51898;49.864;8.550;2024-01-27T01:33:11;5.30;;;3.43;;
10088;SDS011;51898;49.864;8.550;2024-01-27T01:36:13;4.10;;;3.50;;
10088;SDS011;51898;49.864;8.550;2024-01-27T01:39:15;5.83;;;2.80;;
10088;SDS011;51898;49.864;8.550;2024-01-27T01:42:16;10.73;;;3.83;;
10088;SDS011;51898;49.864;8.550;2024-01-27T01:45:18;6.03;;;2.70;;
10088;SDS011;51898;49.864;8.550;2024-01-27T01:48:21;10.80;;;2.93;;
10088;SDS011;51898;49.864;8.550;2024-01-27T01:51:23;6.00;;;2.57;;
10088;SDS011;51898;49.864;8.550;2024-01-27T01:54:27;8.60;;;2.90;;
10088;SDS011;51898;49.864;8.550;2024-01-27T01:57:29;6.70;;;2.80;;
10088;SDS011;51898;49.864;8.550;2024-01-27T02:00:31;8.93;;;3.90;;
10088;SDS011;51898;49.864;8.550;2024-01-27T02:03:34;5.70;;;2.67;;
10088;SDS011;51898;49.864;8.550;2024-01-27T02:06:36;7.60;;;2.93;;
10088;SDS011;51898;49.864;8.550;2024-01-27T02:09:38;13.97;;;3.40;;
10088;SDS011;51898;49.864;8.550;2024-01-27T02:12:39;7.50;;;3.40;;
10088;SDS011;51898;49.864;8.550;2024-01-27T02:15:41;7.10;;;4.30;;
10088;SDS011;51898;49.864;8.550;2024-01-27T02:18:43;9.60;;;3.33;;
10088;SDS011;51898;49.864;8.550;2024-01-27T02:21:45;9.17;;;3.20;;
10088;SDS011;51898;49.864;8.550;2024-01-27T02:24:47;8.03;;;3.47;;
10088;SDS011;51898;49.864;8.550;2024-01-27T02:27:48;9.27;;;3.60;;
10088;SDS011;51898;49.864;8.550;2024-01-27T02:30:50;9.90;;;3.27;;
10088;SDS011;51898;49.864;8.550;2024-01-27T02:33:52;6.47;;;3.43;;
10088;SDS011;51898;49.864;8.550;2024-01-27T02:36:54;9.43;;;3.37;;
10088;SDS011;51898;49.864;8.550;2024-01-27T02:39:55;8.60;;;3.30;;
10088;SDS011;51898;49.864;8.550;2024-01-27T02:42:57;5.90;;;3.67;;
10088;SDS011;51898;49.864;8.550;2024-01-27T02:45:59;7.90;;;3.20;;
10088;SDS011;51898;49.864;8.550;2024-01-27T02:49:00;7.90;;;3.40;;
10088;SDS011;51898;49.864;8.550;2024-01-27T02:52:02;6.90;;;2.80;;
10088;SDS011;51898;49.864;8.550;2024-01-27T02:55:04;7.43;;;3.20;;
10088;SDS011;51898;49.864;8.550;2024-01-27T02:58:06;11.23;;;3.77;;
10088;SDS011;51898;49.864;8.550;2024-01-27T03:01:08;10.17;;;3.70;;
10088;SDS011;51898;49.864;8.550;2024-01-27T03:04:10;7.60;;;3.60;;
10088;SDS011;51898;49.864;8.550;2024-01-27T03:07:11;10.33;;;3.73;;
10088;SDS011;51898;49.864;8.550;2024-01-27T03:10:13;5.50;;;3.43;;
10088;SDS011;51898;49.864;8.550;2024-01-27T03:13:15;7.77;;;3.03;;
10088;SDS011;51898;49.864;8.550;2024-01-27T03:16:17;10.90;;;3.53;;
10088;SDS011;51898;49.864;8.550;2024-01-27T03:19:19;7.97;;;3.33;;
10088;SDS011;51898;49.864;8.550;2024-01-27T03:22:21;8.77;;;3.70;;
10088;SDS011;51898;49.864;8.550;2024-01-27T03:25:23;8.00;;;3.83;;
10088;SDS011;51898;49.864;8.550;2024-01-27T03:28:26;6.43;;;3.40;;
10088;SDS011;51898;49.864;8.550;2024-01-27T03:31:32;8.83;;;3.13;;
10088;SDS011;51898;49.864;8.550;2024-01-27T03:34:35;9.27;;;3.23;;
10088;SDS011;51898;49.864;8.550;2024-01-27T03:37:37;7.30;;;3.57;;
10088;SDS011;51898;49.864;8.550;2024-01-27T03:40:38;10.13;;;3.60;;
10088;SDS011;51898;49.864;8.550;2024-01-27T03:43:40;7.10;;;3.53;;
10088;SDS011;51898;49.864;8.550;2024-01-27T03:46:42;7.20;;;3.80;;
10088;SDS011;51898;49.864;8.550;2024-01-27T03:49:44;9.97;;;4.80;;
10088;SDS011;51898;49.864;8.550;2024-01-27T03:52:46;11.63;;;4.37;;
10088;SDS011;51898;49.864;8.550;2024-01-27T03:55:47;11.30;;;3.80;;
10088;SDS011;51898;49.864;8.550;2024-01-27T03:58:49;12.73;;;4.30;;
10088;SDS011;51898;49.864;8.550;2024-01-27T04:01:51;11.40;;;4.57;;
10088;SDS011;51898;49.864;8.550;2024-01-27T04:04:53;7.33;;;3.77;;
10088;SDS011;51898;49.864;8.550;2024-01-27T04:07:55;15.37;;;4.60;;
10088;SDS011;51898;49.864;8.550;2024-01-27T04:10:57;10.07;;;3.80;;
10088;SDS011;51898;49.864;8.550;2024-01-27T04:13:59;8.20;;;4.40;;
10088;SDS011;51898;49.864;8.550;2024-01-27T04:17:00;14.57;;;4.20;;
10088;SDS011;51898;49.864;8.550;2024-01-27T04:20:02;7.80;;;4.07;;
10088;SDS011;51898;49.864;8.550;2024-01-27T04:23:04;10.30;;;3.90;;
10088;SDS011;51898;49.864;8.550;2024-01-27T04:26:06;7.73;;;3.50;;
10088;SDS011;51898;49.864;8.550;2024-01-27T04:29:08;9.83;;;3.93;;
10088;SDS011;51898;49.864;8.550;2024-01-27T04:32:09;9.47;;;3.73;;
10088;SDS011;51898;49.864;8.550;2024-01-27T04:35:11;10.53;;;3.80;;
10088;SDS011;51898;49.864;8.550;2024-01-27T04:38:13;10.33;;;3.70;;
10088;SDS011;51898;49.864;8.550;2024-01-27T04:41:15;10.90;;;3.53;;
10088;SDS011;51898;49.864;8.550;2024-01-27T04:44:16;10.20;;;4.40;;
10088;SDS011;51898;49.864;8.550;2024-01-27T04:47:19;9.13;;;4.10;;
10088;SDS011;51898;49.864;8.550;2024-01-27T04:50:21;8.93;;;4.00;;
10088;SDS011;51898;49.864;8.550;2024-01-27T04:53:22;5.93;;;3.63;;
10088;SDS011;51898;49.864;8.550;2024-01-27T04:56:24;6.97;;;4.10;;
10088;SDS011;51898;49.864;8.550;2024-01-27T04:59:25;11.97;;;5.63;;
10088;SDS011;51898;49.864;8.550;2024-01-27T05:02:27;9.73;;;5.23;;
10088;SDS011;51898;49.864;8.550;2024-01-27T05:05:29;7.20;;;4.10;;
10088;SDS011;51898;49.864;8.550;2024-01-27T05:08:34;12.33;;;4.30;;
10088;SDS011;51898;49.864;8.550;2024-01-27T05:11:36;9.60;;;5.30;;
10088;SDS011;51898;49.864;8.550;2024-01-27T05:14:42;11.93;;;4.77;;
10088;SDS011;51898;49.864;8.550;2024-01-27T05:17:45;10.57;;;4.67;;
10088;SDS011;51898;49.864;8.550;2024-01-27T05:20:47;6.70;;;4.40;;
10088;SDS011;51898;49.864;8.550;2024-01-27T05:23:48;9.50;;;4.73;;
10088;SDS011;51898;49.864;8.550;2024-01-27T05:26:50;8.27;;;4.50;;
10088;SDS011;51898;49.864;8.550;2024-01-27T05:29:52;9.03;;;4.87;;
10088;SDS011;51898;49.864;8.550;2024-01-27T05:32:53;7.03;;;4.27;;
10088;SDS011;51898;49.864;8.550;2024-01-27T05:35:55;12.00;;;4.97;;
10088;SDS011;51898;49.864;8.550;2024-01-27T05:38:57;5.80;;;3.90;;
10088;SDS011;51898;49.864;8.550;2024-01-27T05:41:59;11.53;;;4.90;;
10088;SDS011;51898;49.864;8.550;2024-01-27T05:45:00;10.43;;;4.70;;
10088;SDS011;51898;49.864;8.550;2024-01-27T05:48:02;9.40;;;4.30;;
10088;SDS011;51898;49.864;8.550;2024-01-27T05:51:04;9.63;;;4.10;;
10088;SDS011;51898;49.864;8.550;2024-01-27T05:54:06;16.50;;;4.80;;
10088;SDS011;51898;49.864;8.550;2024-01-27T05:57:10;7.80;;;4.20;;
10088;SDS011;51898;49.864;8.550;2024-01-27T06:00:12;9.63;;;4.80;;
10088;SDS011;51898;49.864;8.550;2024-01-27T06:03:14;8.83;;;5.00;;
10088;SDS011;51898;49.864;8.550;2024-01-27T06:06:18;9.63;;;4.53;;
10088;SDS011;51898;49.864;8.550;2024-01-27T06:09:19;8.93;;;3.93;;
10088;SDS011;51898;49.864;8.550;2024-01-27T06:12:22;12.03;;;5.03;;
10088;SDS011;51898;49.864;8.550;2024-01-27T06:15:24;12.80;;;4.87;;
10088;SDS011;51898;49.864;8.550;2024-01-27T06:18:26;10.70;;;5.30;;
10088;SDS011;51898;49.864;8.550;2024-01-27T06:21:28;10.40;;;6.00;;
10088;SDS011;51898;49.864;8.550;2024-01-27T06:24:30;10.23;;;4.97;;
10088;SDS011;51898;49.864;8.550;2024-01-27T06:27:31;13.73;;;5.37;;
10088;SDS011;51898;49.864;8.550;2024-01-27T06:30:34;9.80;;;4.27;;
10088;SDS011;51898;49.864;8.550;2024-01-27T06:33:35;10.13;;;4.63;;
10088;SDS011;51898;49.864;8.550;2024-01-27T06:36:37;10.10;;;5.00;;
10088;SDS011;51898;49.864;8.550;2024-01-27T06:39:39;12.73;;;5.20;;
10088;SDS011;51898;49.864;8.550;2024-01-27T06:42:41;13.20;;;5.70;;
10088;SDS011;51898;49.864;8.550;2024-01-27T06:45:42;13.40;;;6.10;;
10088;SDS011;51898;49.864;8.550;2024-01-27T06:48:44;11.50;;;5.67;;
10088;SDS011;51898;49.864;8.550;2024-01-27T06:51:46;10.53;;;5.93;;
10088;SDS011;51898;49.864;8.550;2024-01-27T06:54:48;18.77;;;7.40;;
10088;SDS011;51898;49.864;8.550;2024-01-27T06:57:50;21.23;;;7.03;;
10088;SDS011;51898;49.864;8.550;2024-01-27T07:00:51;9.70;;;6.30;;
10088;SDS011;51898;49.864;8.550;2024-01-27T07:03:53;13.20;;;5.50;;
10088;SDS011;51898;49.864;8.550;2024-01-27T07:06:55;10.23;;;4.80;;
10088;SDS011;51898;49.864;8.550;2024-01-27T07:09:57;11.50;;;5.43;;
10088;SDS011;51898;49.864;8.550;2024-01-27T07:12:59;7.20;;;4.70;;
10088;SDS011;51898;49.864;8.550;2024-01-27T07:16:01;9.10;;;4.40;;
10088;SDS011;51898;49.864;8.550;2024-01-27T07:19:02;6.93;;;4.30;;
10088;SDS011;51898;49.864;8.550;2024-01-27T07:22:04;9.30;;;4.83;;
10088;SDS011;51898;49.864;8.550;2024-01-27T07:25:06;11.50;;;5.00;;
10088;SDS011;51898;49.864;8.550;2024-01-27T07:28:11;16.90;;;7.00;;
10088;SDS011;51898;49.864;8.550;2024-01-27T07:31:13;9.30;;;6.53;;
10088;SDS011;51898;49.864;8.550;2024-01-27T07:34:15;15.40;;;7.07;;
10088;SDS011;51898;49.864;8.550;2024-01-27T07:37:17;14.20;;;5.43;;
10088;SDS011;51898;49.864;8.550;2024-01-27T07:40:20;8.50;;;4.93;;
10088;SDS011;51898;49.864;8.550;2024-01-27T07:43:21;12.03;;;4.20;;
10088;SDS011;51898;49.864;8.550;2024-01-27T07:46:23;11.73;;;4.70;;
10088;SDS011;51898;49.864;8.550;2024-01-27T07:49:25;13.27;;;4.60;;
10088;SDS011;51898;49.864;8.550;2024-01-27T07:52:27;18.47;;;5.10;;
10088;SDS011;51898;49.864;8.550;2024-01-27T07:55:29;11.03;;;4.83;;
10088;SDS011;51898;49.864;8.550;2024-01-27T07:58:30;13.57;;;5.03;;
10088;SDS011;51898;49.864;8.550;2024-01-27T08:01:32;8.60;;;4.73;;
10088;SDS011;51898;49.864;8.550;2024-01-27T08:04:34;9.60;;;5.00;;
10088;SDS011;51898;49.864;8.550;2024-01-27T08:07:35;12.03;;;5.50;;
10088;SDS011;51898;49.864;8.550;2024-01-27T08:10:37;12.07;;;5.37;;
10088;SDS011;51898;49.864;8.550;2024-01-27T08:13:41;12.00;;;5.67;;
10088;SDS011;51898;49.864;8.550;2024-01-27T08:16:43;12.20;;;5.60;;
10088;SDS011;51898;49.864;8.550;2024-01-27T08:19:45;7.80;;;4.43;;
10088;SDS011;51898;49.864;8.550;2024-01-27T08:22:47;8.43;;;5.17;;
10088;SDS011;51898;49.864;8.550;2024-01-27T08:25:52;12.20;;;4.90;;
10088;SDS011;51898;49.864;8.550;2024-01-27T08:28:54;13.03;;;5.10;;
10088;SDS011;51898;49.864;8.550;2024-01-27T08:31:57;12.07;;;5.30;;
10088;SDS011;51898;49.864;8.550;2024-01-27T08:34:59;7.80;;;4.33;;
10088;SDS011;51898;49.864;8.550;2024-01-27T08:38:00;8.63;;;4.53;;
10088;SDS011;51898;49.864;8.550;2024-01-27T08:41:02;8.10;;;5.10;;
10088;SDS011;51898;49.864;8.550;2024-01-27T08:44:04;9.73;;;5.30;;
10088;SDS011;51898;49.864;8.550;2024-01-27T08:47:06;11.07;;;6.10;;
10088;SDS011;51898;49.864;8.550;2024-01-27T08:50:09;11.90;;;5.70;;
10088;SDS011;51898;49.864;8.550;2024-01-27T08:53:12;10.83;;;5.53;;
10088;SDS011;51898;49.864;8.550;2024-01-27T08:56:14;20.03;;;5.23;;
10088;SDS011;51898;49.864;8.550;2024-01-27T08:59:17;10.60;;;5.73;;
10088;SDS011;51898;49.864;8.550;2024-01-27T09:02:19;11.90;;;6.40;;
10088;SDS011;51898;49.864;8.550;2024-01-27T09:05:20;10.10;;;5.50;;
10088;SDS011;51898;49.864;8.550;2024-01-27T09:08:22;7.80;;;5.60;;
10088;SDS011;51898;49.864;8.550;2024-01-27T09:11:24;17.50;;;6.07;;
10088;SDS011;51898;49.864;8.550;2024-01-27T09:14:28;11.23;;;6.17;;
10088;SDS011;51898;49.864;8.550;2024-01-27T09:17:30;14.57;;;6.47;;
10088;SDS011;51898;49.864;8.550;2024-01-27T09:20:32;14.63;;;6.33;;
10088;SDS011;51898;49.864;8.550;2024-01-27T09:23:33;14.50;;;6.50;;
10088;SDS011;51898;49.864;8.550;2024-01-27T09:26:35;12.33;;;6.70;;
10088;SDS011;51898;49.864;8.550;2024-01-27T09:29:37;18.90;;;7.80;;
10088;SDS011;51898;49.864;8.550;2024-01-27T09:32:39;9.57;;;6.40;;
10088;SDS011;51898;49.864;8.550;2024-01-27T09:35:41;9.10;;;5.73;;
10088;SDS011;51898;49.864;8.550;2024-01-27T09:38:43;10.37;;;6.20;;
10088;SDS011;51898;49.864;8.550;2024-01-27T09:41:45;13.47;;;6.90;;
10088;SDS011;51898;49.864;8.550;2024-01-27T09:44:49;10.27;;;6.33;;
10088;SDS011;51898;49.864;8.550;2024-01-27T09:47:51;10.37;;;6.67;;
10088;SDS011;51898;49.864;8.550;2024-01-27T09:50:53;13.60;;;6.47;;
10088;SDS011;51898;49.864;8.550;2024-01-27T09:53:59;13.57;;;6.80;;
10088;SDS011;51898;49.864;8.550;2024-01-27T09:57:01;15.87;;;7.17;;
10088;SDS011;51898;49.864;8.550;2024-01-27T10:00:04;13.40;;;6.77;;
10088;SDS011;51898;49.864;8.550;2024-01-27T10:03:11;18.00;;;7.47;;
10088;SDS011;51898;49.864;8.550;2024-01-27T10:06:12;16.60;;;7.23;;
10088;SDS011;51898;49.864;8.550;2024-01-27T10:09:17;16.43;;;6.50;;
10088;SDS011;51898;49.864;8.550;2024-01-27T10:12:20;13.40;;;7.77;;
10088;SDS011;51898;49.864;8.550;2024-01-27T10:15:23;18.40;;;7.70;;
10088;SDS011;51898;49.864;8.550;2024-01-27T10:18:28;14.37;;;7.40;;
10088;SDS011;51898;49.864;8.550;2024-01-27T10:21:30;12.23;;;6.23;;
10088;SDS011;51898;49.864;8.550;2024-01-27T10:24:32;11.43;;;5.77;;
10088;SDS011;51898;49.864;8.550;2024-01-27T10:27:35;9.67;;;5.67;;
10088;SDS011;51898;49.864;8.550;2024-01-27T10:30:37;12.97;;;6.67;;
10088;SDS011;51898;49.864;8.550;2024-01-27T10:33:39;12.07;;;5.60;;
10088;SDS011;51898;49.864;8.550;2024-01-27T10:36:52;10.33;;;5.30;;
10088;SDS011;51898;49.864;8.550;2024-01-27T10:40:01;10.37;;;6.57;;
10088;SDS011;51898;49.864;8.550;2024-01-27T10:43:08;20.27;;;7.83;;
10088;SDS011;51898;49.864;8.550;2024-01-27T10:46:10;8.23;;;5.97;;
10088;SDS011;51898;49.864;8.550;2024-01-27T10:49:16;14.83;;;4.93;;
10088;SDS011;51898;49.864;8.550;2024-01-27T10:52:18;11.23;;;5.00;;
10088;SDS011;51898;49.864;8.550;2024-01-27T10:55:24;9.37;;;4.50;;
10088;SDS011;51898;49.864;8.550;2024-01-27T10:58:26;12.83;;;4.40;;
10088;SDS011;51898;49.864;8.550;2024-01-27T11:01:30;9.37;;;3.80;;
10088;SDS011;51898;49.864;8.550;2024-01-27T11:04:33;11.57;;;4.83;;
10088;SDS011;51898;49.864;8.550;2024-01-27T11:07:37;7.87;;;4.00;;
10088;SDS011;51898;49.864;8.550;2024-01-27T11:10:40;10.57;;;4.33;;
10088;SDS011;51898;49.864;8.550;2024-01-27T11:13:42;11.00;;;3.90;;
10088;SDS011;51898;49.864;8.550;2024-01-27T11:16:46;13.87;;;4.23;;
10088;SDS011;51898;49.864;8.550;2024-01-27T11:19:49;9.13;;;4.53;;
10088;SDS011;51898;49.864;8.550;2024-01-27T11:22:51;9.63;;;5.83;;
10088;SDS011;51898;49.864;8.550;2024-01-27T11:26:01;8.33;;;4.57;;
10088;SDS011;51898;49.864;8.550;2024-01-27T11:29:08;9.63;;;4.27;;
10088;SDS011;51898;49.864;8.550;2024-01-27T11:32:22;6.90;;;4.00;;
10088;SDS011;51898;49.864;8.550;2024-01-27T11:35:24;11.93;;;4.60;;
10088;SDS011;51898;49.864;8.550;2024-01-27T11:38:26;11.90;;;4.97;;
10088;SDS011;51898;49.864;8.550;2024-01-27T11:41:28;10.50;;;5.70;;
10088;SDS011;51898;49.864;8.550;2024-01-27T11:44:33;9.10;;;6.03;;
10088;SDS011;51898;49.864;8.550;2024-01-27T11:47:36;12.03;;;5.23;;
10088;SDS011;51898;49.864;8.550;2024-01-27T11:50:37;11.03;;;5.00;;
10088;SDS011;51898;49.864;8.550;2024-01-27T11:53:39;14.30;;;5.20;;
10088;SDS011;51898;49.864;8.550;2024-01-27T11:56:41;11.60;;;4.33;;
10088;SDS011;51898;49.864;8.550;2024-01-27T11:59:43;9.07;;;4.50;;
10088;SDS011;51898;49.864;8.550;2024-01-27T12:02:49;11.63;;;4.50;;
10088;SDS011;51898;49.864;8.550;2024-01-27T12:05:51;8.27;;;4.03;;
10088;SDS011;51898;49.864;8.550;2024-01-27T12:08:54;8.57;;;4.47;;
10088;SDS011;51898;49.864;8.550;2024-01-27T12:11:58;12.33;;;5.10;;
10088;SDS011;51898;49.864;8.550;2024-01-27T12:15:00;11.77;;;4.30;;
10088;SDS011;51898;49.864;8.550;2024-01-27T12:18:04;15.10;;;4.27;;
10088;SDS011;51898;49.864;8.550;2024-01-27T12:21:06;11.77;;;4.57;;
10088;SDS011;51898;49.864;8.550;2024-01-27T12:24:13;9.83;;;4.37;;
10088;SDS011;51898;49.864;8.550;2024-01-27T12:27:22;14.87;;;5.80;;
10088;SDS011;51898;49.864;8.550;2024-01-27T12:30:24;12.47;;;4.80;;
10088;SDS011;51898;49.864;8.550;2024-01-27T12:33:26;9.80;;;4.53;;
10088;SDS011;51898;49.864;8.550;2024-01-27T12:36:29;13.77;;;4.50;;
10088;SDS011;51898;49.864;8.550;2024-01-27T12:39:31;17.13;;;4.90;;
10088;SDS011;51898;49.864;8.550;2024-01-27T12:42:32;10.20;;;4.20;;
10088;SDS011;51898;49.864;8.550;2024-01-27T12:45:34;9.13;;;3.70;;
10088;SDS011;51898;49.864;8.550;2024-01-27T12:48:36;10.60;;;4.23;;
10088;SDS011;51898;49.864;8.550;2024-01-27T12:51:38;10.30;;;4.73;;
10088;SDS011;51898;49.864;8.550;2024-01-27T12:54:43;14.93;;;4.90;;
10088;SDS011;51898;49.864;8.550;2024-01-27T12:57:46;12.40;;;5.43;;
10088;SDS011;51898;49.864;8.550;2024-01-27T13:00:48;7.43;;;4.20;;
10088;SDS011;51898;49.864;8.550;2024-01-27T13:03:50;7.80;;;4.40;;
10088;SDS011;51898;49.864;8.550;2024-01-27T13:06:52;16.50;;;9.57;;
10088;SDS011;51898;49.864;8.550;2024-01-27T13:09:55;13.67;;;6.27;;
10088;SDS011;51898;49.864;8.550;2024-01-27T13:12:57;10.83;;;4.73;;
10088;SDS011;51898;49.864;8.550;2024-01-27T13:15:59;10.00;;;4.40;;
10088;SDS011;51898;49.864;8.550;2024-01-27T13:19:01;14.00;;;3.83;;
10088;SDS011;51898;49.864;8.550;2024-01-27T13:22:03;8.13;;;4.20;;
10088;SDS011;51898;49.864;8.550;2024-01-27T13:25:06;8.97;;;4.10;;
10088;SDS011;51898;49.864;8.550;2024-01-27T13:28:09;9.50;;;3.70;;
10088;SDS011;51898;49.864;8.550;2024-01-27T13:31:13;6.57;;;3.00;;
10088;SDS011;51898;49.864;8.550;2024-01-27T13:34:15;10.73;;;3.63;;
10088;SDS011;51898;49.864;8.550;2024-01-27T13:37:17;8.57;;;4.00;;
10088;SDS011;51898;49.864;8.550;2024-01-27T13:40:19;8.90;;;3.97;;
10088;SDS011;51898;49.864;8.550;2024-01-27T13:43:22;9.87;;;3.80;;
10088;SDS011;51898;49.864;8.550;2024-01-27T13:46:24;8.37;;;3.60;;
10088;SDS011;51898;49.864;8.550;2024-01-27T13:49:26;11.53;;;3.20;;
10088;SDS011;51898;49.864;8.550;2024-01-27T13:52:28;11.80;;;3.63;;
10088;SDS011;51898;49.864;8.550;2024-01-27T13:55:30;10.23;;;3.63;;
10088;SDS011;51898;49.864;8.550;2024-01-27T13:58:32;12.93;;;4.43;;
10088;SDS011;51898;49.864;8.550;2024-01-27T14:01:34;10.20;;;4.00;;
10088;SDS011;51898;49.864;8.550;2024-01-27T14:04:36;8.93;;;4.40;;
10088;SDS011;51898;49.864;8.550;2024-01-27T14:07:37;10.67;;;3.90;;
10088;SDS011;51898;49.864;8.550;2024-01-27T14:10:40;8.77;;;3.53;;
10088;SDS011;51898;49.864;8.550;2024-01-27T14:13:44;9.80;;;3.53;;
10088;SDS011;51898;49.864;8.550;2024-01-27T14:16:46;7.40;;;3.80;;
10088;SDS011;51898;49.864;8.550;2024-01-27T14:19:48;14.30;;;3.63;;
10088;SDS011;51898;49.864;8.550;2024-01-27T14:22:50;7.97;;;2.60;;
10088;SDS011;51898;49.864;8.550;2024-01-27T14:25:51;6.17;;;2.33;;
10088;SDS011;51898;49.864;8.550;2024-01-27T14:28:53;5.80;;;2.40;;
10088;SDS011;51898;49.864;8.550;2024-01-27T14:31:55;5.07;;;2.60;;
10088;SDS011;51898;49.864;8.550;2024-01-27T14:34:57;13.87;;;3.10;;
10088;SDS011;51898;49.864;8.550;2024-01-27T14:37:59;7.07;;;2.80;;
10088;SDS011;51898;49.864;8.550;2024-01-27T14:41:02;10.90;;;3.10;;
10088;SDS011;51898;49.864;8.550;2024-01-27T14:44:04;8.30;;;3.53;;
10088;SDS011;51898;49.864;8.550;2024-01-27T14:47:07;9.60;;;4.03;;
10088;SDS011;51898;49.864;8.550;2024-01-27T14:50:09;7.70;;;3.50;;
10088;SDS011;51898;49.864;8.550;2024-01-27T14:53:11;8.10;;;3.20;;
10088;SDS011;51898;49.864;8.550;2024-01-27T14:56:14;7.80;;;3.13;;
10088;SDS011;51898;49.864;8.550;2024-01-27T14:59:16;5.40;;;3.80;;
10088;SDS011;51898;49.864;8.550;2024-01-27T15:02:19;9.77;;;2.60;;
10088;SDS011;51898;49.864;8.550;2024-01-27T15:05:26;11.10;;;3.40;;
10088;SDS011;51898;49.864;8.550;2024-01-27T15:08:28;7.30;;;2.90;;
10088;SDS011;51898;49.864;8.550;2024-01-27T15:11:29;9.70;;;3.40;;
10088;SDS011;51898;49.864;8.550;2024-01-27T15:14:31;7.47;;;3.20;;
10088;SDS011;51898;49.864;8.550;2024-01-27T15:17:33;7.43;;;2.80;;
10088;SDS011;51898;49.864;8.550;2024-01-27T15:20:35;8.83;;;2.97;;
10088;SDS011;51898;49.864;8.550;2024-01-27T15:23:37;6.50;;;2.63;;
10088;SDS011;51898;49.864;8.550;2024-01-27T15:26:39;9.07;;;3.70;;
10088;SDS011;51898;49.864;8.550;2024-01-27T15:29:41;5.83;;;2.77;;
10088;SDS011;51898;49.864;8.550;2024-01-27T15:32:47;13.43;;;3.90;;
10088;SDS011;51898;49.864;8.550;2024-01-27T15:35:49;10.20;;;3.60;;
10088;SDS011;51898;49.864;8.550;2024-01-27T15:38:51;7.20;;;3.30;;
10088;SDS011;51898;49.864;8.550;2024-01-27T15:41:53;16.33;;;4.50;;
10088;SDS011;51898;49.864;8.550;2024-01-27T15:44:55;18.47;;;3.67;;
10088;SDS011;51898;49.864;8.550;2024-01-27T15:47:56;5.77;;;3.90;;
10088;SDS011;51898;49.864;8.550;2024-01-27T15:51:00;12.63;;;4.00;;
10088;SDS011;51898;49.864;8.550;2024-01-27T15:54:02;8.47;;;4.40;;
10088;SDS011;51898;49.864;8.550;2024-01-27T15:57:04;14.73;;;3.27;;
10088;SDS011;51898;49.864;8.550;2024-01-27T16:00:06;14.83;;;4.30;;
10088;SDS011;51898;49.864;8.550;2024-01-27T16:03:12;11.80;;;3.70;;
10088;SDS011;51898;49.864;8.550;2024-01-27T16:06:14;11.10;;;3.87;;
10088;SDS011;51898;49.864;8.550;2024-01-27T16:09:16;13.53;;;5.23;;
10088;SDS011;51898;49.864;8.550;2024-01-27T16:12:17;12.00;;;5.90;;
10088;SDS011;51898;49.864;8.550;2024-01-27T16:15:19;11.57;;;5.40;;
10088;SDS011;51898;49.864;8.550;2024-01-27T16:18:21;13.83;;;5.47;;
10088;SDS011;51898;49.864;8.550;2024-01-27T16:21:23;10.00;;;5.83;;
10088;SDS011;51898;49.864;8.550;2024-01-27T16:24:26;15.57;;;6.70;;
10088;SDS011;51898;49.864;8.550;2024-01-27T16:27:27;13.93;;;6.67;;
10088;SDS011;51898;49.864;8.550;2024-01-27T16:30:32;11.43;;;6.20;;
10088;SDS011;51898;49.864;8.550;2024-01-27T16:33:34;11.57;;;6.10;;
10088;SDS011;51898;49.864;8.550;2024-01-27T16:36:36;18.37;;;7.93;;
10088;SDS011;51898;49.864;8.550;2024-01-27T16:39:38;15.90;;;6.13;;
10088;SDS011;51898;49.864;8.550;2024-01-27T16:42:40;10.93;;;5.80;;
10088;SDS011;51898;49.864;8.550;2024-01-27T16:45:41;25.23;;;7.70;;
10088;SDS011;51898;49.864;8.550;2024-01-27T16:48:43;21.10;;;7.43;;
10088;SDS011;51898;49.864;8.550;2024-01-27T16:51:46;19.47;;;7.27;;
10088;SDS011;51898;49.864;8.550;2024-01-27T16:54:49;12.60;;;6.93;;
10088;SDS011;51898;49.864;8.550;2024-01-27T16:57:50;13.47;;;5.30;;
10088;SDS011;51898;49.864;8.550;2024-01-27T17:00:52;28.33;;;7.87;;
10088;SDS011;51898;49.864;8.550;2024-01-27T17:03:54;24.70;;;12.07;;
10088;SDS011;51898;49.864;8.550;2024-01-27T17:06:57;23.87;;;11.57;;
10088;SDS011;51898;49.864;8.550;2024-01-27T17:09:59;21.43;;;9.43;;
10088;SDS011;51898;49.864;8.550;2024-01-27T17:13:01;15.47;;;8.07;;
10088;SDS011;51898;49.864;8.550;2024-01-27T17:16:03;32.20;;;10.90;;
10088;SDS011;51898;49.864;8.550;2024-01-27T17:19:05;27.87;;;10.63;;
10088;SDS011;51898;49.864;8.550;2024-01-27T17:22:07;26.87;;;12.43;;
10088;SDS011;51898;49.864;8.550;2024-01-27T17:25:09;26.37;;;12.43;;
10088;SDS011;51898;49.864;8.550;2024-01-27T17:28:11;25.10;;;11.70;;
10088;SDS011;51898;49.864;8.550;2024-01-27T17:31:13;17.40;;;10.00;;
10088;SDS011;51898;49.864;8.550;2024-01-27T17:34:14;19.63;;;9.00;;
10088;SDS011;51898;49.864;8.550;2024-01-27T17:37:18;16.47;;;8.30;;
10088;SDS011;51898;49.864;8.550;2024-01-27T17:40:20;14.40;;;7.33;;
10088;SDS011;51898;49.864;8.550;2024-01-27T17:43:22;13.57;;;7.37;;
10088;SDS011;51898;49.864;8.550;2024-01-27T17:46:24;21.07;;;9.17;;
10088;SDS011;51898;49.864;8.550;2024-01-27T17:49:26;15.37;;;7.80;;
10088;SDS011;51898;49.864;8.550;2024-01-27T17:52:28;15.83;;;8.90;;
10088;SDS011;51898;49.864;8.550;2024-01-27T17:55:30;17.63;;;6.93;;
10088;SDS011;51898;49.864;8.550;2024-01-27T17:58:31;10.70;;;6.40;;
10088;SDS011;51898;49.864;8.550;2024-01-27T18:01:33;12.83;;;5.90;;
10088;SDS011;51898;49.864;8.550;2024-01-27T18:04:35;13.37;;;6.10;;
10088;SDS011;51898;49.864;8.550;2024-01-27T18:07:37;15.73;;;6.33;;
10088;SDS011;51898;49.864;8.550;2024-01-27T18:10:39;14.37;;;6.50;;